Accueil
METAR-TAF:

METAR-TAF

Aéroports :

Aéroport international de Chengdu-Shuangliu

Chengdu, Chine

latitude: 30-40N, longitude: 104-01E, altitude: 508 m

Observation

Le bulletin a été fait il y a 27 minutes, à 07:00 UTC
Vent 2 kt de direction variable
Température 16°C
Humidité 36%
Pression 1029 hPa
Visibilité 10 km ou plus
Quelques nuages à une hauteur de 3000 ft

METAR: ZUUU 210700Z VRB01MPS 9999 FEW030 16/01 Q1029 NOSIG

Heure: 15:27 (07:27 UTC)

Prévision

Le bulletin a été fait il y a 5 heures et 25 minutes, à 02:02 UTC
Prévision valable du 21 à 06 UTC au 22 à 06 UTC
Vent 6 kt de sud/sud-ouest
Visibilité: 5000 m
Nuages épars à une hauteur de 4000 ft
brume

TAF: ZUUU 210202Z 2106/2206 20003MPS 5000 BR SCT040 TX16/2107Z TN06/2123Z

Observations et prévisions météorologiques de plus de 4000 aéroports (messages METAR et TAF).

Les stations disponibles sont représentées par des disques jaunes et rouges sur la carte.

Passer la souris dessus pour voir le nom de la station.

Cliquer dessus pour voir les observations et prévisions météorologiques.

Pour changer de carte: cliquez sur les boutons verts avec une croix noire pour zoomer, sur le bouton vert avec un tiret pour effectuer un zoom arrière, ou sur les flèches vertes pour les cartes adjacentes.


METAR-TAF: